createdAt,value
2023-04-17T00:03:12.280Z,42.37
2023-04-17T00:05:39.804Z,43.97
2023-04-17T00:08:07.561Z,41.33
2023-04-17T00:10:34.856Z,43.07
2023-04-17T00:13:01.969Z,45.90
2023-04-17T00:15:29.209Z,44.30
2023-04-17T00:17:57.016Z,51.57
2023-04-17T00:25:29.021Z,47.53
2023-04-17T00:27:56.205Z,50.70
2023-04-17T00:30:23.421Z,50.73
2023-04-17T00:32:50.727Z,61.23
2023-04-17T00:35:18.093Z,52.87
2023-04-17T00:37:45.633Z,49.37
2023-04-17T00:40:13.565Z,49.63
2023-04-17T00:47:45.711Z,54.80
2023-04-17T00:50:13.321Z,57.83
2023-04-17T00:52:41.075Z,52.03
2023-04-17T00:55:08.482Z,51.60
2023-04-17T00:57:35.692Z,52.93
2023-04-17T01:00:03.919Z,60.77
2023-04-17T01:02:31.396Z,52.50
2023-04-17T01:07:54.904Z,51.70
2023-04-17T01:10:22.131Z,50.57
2023-04-17T01:13:02.116Z,54.83
2023-04-17T01:15:29.732Z,72.57
2023-04-17T01:17:57.261Z,62.10
2023-04-17T01:20:25.485Z,51.50
2023-04-17T01:22:53.798Z,54.10
2023-04-17T01:30:27.823Z,62.83
2023-04-17T01:32:55.197Z,57.83
2023-04-17T01:35:23.672Z,56.40
2023-04-17T01:37:51.674Z,62.07
2023-04-17T01:40:19.110Z,52.10
2023-04-17T01:42:46.332Z,54.23
2023-04-17T01:45:13.361Z,46.33
2023-04-17T01:52:45.530Z,178.13
2023-04-17T01:55:12.832Z,67.40
2023-04-17T01:57:40.616Z,307.87
2023-04-17T02:00:10.360Z,302.27
2023-04-17T02:02:38.395Z,162.70
2023-04-17T02:05:06.662Z,159.73
2023-04-17T02:07:34.143Z,112.57
2023-04-17T02:15:09.289Z,53.60
2023-04-17T02:17:36.322Z,47.93
2023-04-17T02:20:06.501Z,58.60
2023-04-17T02:22:34.405Z,52.47
2023-04-17T02:25:01.642Z,57.30
2023-04-17T02:27:29.344Z,52.83
2023-04-17T02:29:56.689Z,49.93
2023-04-17T02:37:36.657Z,53.77
2023-04-17T02:40:06.141Z,51.40
2023-04-17T02:42:33.366Z,47.23
2023-04-17T02:45:00.652Z,50.40
2023-04-17T02:47:27.880Z,48.93
2023-04-17T02:49:55.732Z,53.07
2023-04-17T02:52:26.178Z,57.03
2023-04-17T02:59:58.766Z,70.73
2023-04-17T03:02:26.065Z,52.00
2023-04-17T03:04:53.415Z,63.80
2023-04-17T03:07:23.537Z,142.00
2023-04-17T03:09:53.794Z,56.40
2023-04-17T03:12:21.165Z,57.77
2023-04-17T03:14:48.447Z,48.90
2023-04-17T03:20:26.709Z,74.10
2023-04-17T03:22:53.668Z,51.93
2023-04-17T03:25:21.049Z,80.97
2023-04-17T03:27:48.983Z,81.20
2023-04-17T03:30:19.023Z,49.93
2023-04-17T03:32:46.481Z,81.77
2023-04-17T03:35:14.222Z,98.10
2023-04-17T03:42:47.458Z,78.20
2023-04-17T03:45:25.224Z,71.27
2023-04-17T03:47:52.240Z,64.23
2023-04-17T03:50:20.345Z,70.10
2023-04-17T03:52:49.147Z,88.80
2023-04-17T03:55:16.883Z,59.00
2023-04-17T03:57:44.106Z,58.57
2023-04-17T04:00:13.809Z,56.27
2023-04-17T04:07:42.062Z,68.07
2023-04-17T04:10:10.143Z,59.27
2023-04-17T04:12:37.395Z,68.00
2023-04-17T04:15:05.856Z,63.00
2023-04-17T04:17:33.392Z,58.97
2023-04-17T04:20:00.780Z,55.77
2023-04-17T04:22:34.304Z,53.20
2023-04-17T04:30:10.930Z,56.07
2023-04-17T04:32:38.540Z,56.93
2023-04-17T04:35:07.033Z,59.93
2023-04-17T04:37:35.468Z,56.27
2023-04-17T04:40:09.942Z,52.57
2023-04-17T04:42:39.553Z,55.20
2023-04-17T04:48:05.192Z,50.47
2023-04-17T04:50:32.401Z,43.47
2023-04-17T04:52:59.648Z,53.10
2023-04-17T04:55:27.541Z,43.57
2023-04-17T04:57:54.915Z,45.27
2023-04-17T05:00:23.187Z,45.67
2023-04-17T05:02:50.738Z,41.00
2023-04-17T05:10:25.132Z,36.37
2023-04-17T05:12:52.789Z,40.47
2023-04-17T05:15:20.085Z,38.17
2023-04-17T05:17:47.331Z,37.60
2023-04-17T05:20:15.392Z,38.97
2023-04-17T05:22:42.861Z,37.73
2023-04-17T05:25:10.443Z,38.07
2023-04-17T05:32:48.236Z,41.97
2023-04-17T05:35:15.552Z,50.50
2023-04-17T05:37:43.221Z,51.00
2023-04-17T05:40:11.676Z,93.63
2023-04-17T05:42:38.905Z,47.13
2023-04-17T05:45:06.807Z,56.43
2023-04-17T05:47:33.895Z,45.90
2023-04-17T05:52:40.937Z,46.60
2023-04-17T05:55:08.860Z,46.73
2023-04-17T05:57:36.492Z,55.20
2023-04-17T06:00:10.122Z,42.73
2023-04-17T06:02:38.605Z,61.13
2023-04-17T06:05:07.603Z,52.13
2023-04-17T06:07:36.135Z,46.90
2023-04-17T06:15:09.780Z,56.30
2023-04-17T06:17:38.025Z,53.27
2023-04-17T06:20:09.749Z,52.20
2023-04-17T06:22:36.994Z,57.63
2023-04-17T06:25:04.250Z,52.93
2023-04-17T06:27:31.598Z,52.40
2023-04-17T06:29:59.143Z,50.80
2023-04-17T06:37:33.002Z,50.30
2023-04-17T06:40:00.852Z,46.77
2023-04-17T06:42:39.024Z,54.60
2023-04-17T06:45:07.635Z,49.80
2023-04-17T06:47:34.579Z,49.13
2023-04-17T06:50:01.651Z,53.10
2023-04-17T06:52:28.629Z,51.67
2023-04-17T07:00:07.598Z,53.87
2023-04-17T07:02:35.004Z,51.40
2023-04-17T07:05:05.978Z,53.93
2023-04-17T07:07:34.065Z,46.40
2023-04-17T07:10:01.124Z,51.63
2023-04-17T07:12:31.529Z,47.43
2023-04-17T07:14:58.774Z,48.33
2023-04-17T07:22:31.632Z,44.57
2023-04-17T07:24:59.174Z,48.90
2023-04-17T07:27:26.803Z,55.70
2023-04-17T07:29:54.870Z,49.93
2023-04-17T07:32:23.616Z,48.97
2023-04-17T07:34:50.985Z,46.47
2023-04-17T07:37:18.259Z,50.43
2023-04-17T07:44:56.439Z,49.90
2023-04-17T07:47:24.052Z,42.57
2023-04-17T07:49:51.391Z,49.87
2023-04-17T07:52:18.546Z,47.33
2023-04-17T07:54:47.054Z,38.07
2023-04-17T07:57:15.473Z,44.47
2023-04-17T07:59:42.610Z,40.93
2023-04-17T08:07:43.053Z,39.10
2023-04-17T08:10:11.050Z,38.07
2023-04-17T08:12:38.940Z,36.57
2023-04-17T08:15:07.154Z,39.37
2023-04-17T08:17:36.820Z,43.43
2023-04-17T08:20:11.525Z,42.13
2023-04-17T08:22:44.490Z,45.70
2023-04-17T08:29:27.326Z,44.77
2023-04-17T08:32:06.820Z,42.27
2023-04-17T08:34:39.592Z,41.20
2023-04-17T08:37:06.825Z,41.27
2023-04-17T08:39:34.326Z,38.60
2023-04-17T08:42:06.907Z,37.17
2023-04-17T08:47:25.656Z,39.67
2023-04-17T08:49:57.870Z,36.67
2023-04-17T08:52:25.020Z,36.37
2023-04-17T08:54:55.574Z,31.20
2023-04-17T08:57:23.740Z,31.53
2023-04-17T08:59:51.008Z,27.83
2023-04-17T09:02:18.836Z,23.60
2023-04-17T09:09:56.745Z,27.43
2023-04-17T09:12:25.378Z,22.73
2023-04-17T09:14:53.225Z,24.83
2023-04-17T09:17:22.539Z,23.23
2023-04-17T09:20:06.792Z,23.37
2023-04-17T09:22:34.353Z,18.00
2023-04-17T09:25:03.082Z,17.60
2023-04-17T09:31:53.561Z,17.80
2023-04-17T09:34:21.349Z,18.60
2023-04-17T09:36:55.293Z,17.43
2023-04-17T09:39:24.344Z,16.17
2023-04-17T09:42:02.974Z,21.63
2023-04-17T09:44:30.828Z,15.60
2023-04-17T09:47:01.661Z,20.57
2023-04-17T09:49:34.503Z,15.97
2023-04-17T09:55:12.206Z,17.97
2023-04-17T09:57:41.432Z,19.63
2023-04-17T10:00:14.381Z,16.40
2023-04-17T10:02:43.283Z,17.53
2023-04-17T10:05:11.650Z,17.50
2023-04-17T10:07:40.040Z,21.47
2023-04-17T10:10:10.408Z,17.63
2023-04-17T10:17:43.822Z,14.00
2023-04-17T10:20:34.882Z,13.77
2023-04-17T10:23:32.227Z,14.87
2023-04-17T10:26:41.293Z,14.23
2023-04-17T10:29:09.380Z,12.73
2023-04-17T10:32:25.177Z,12.37
2023-04-17T10:40:20.379Z,9.07
2023-04-17T10:43:03.209Z,10.30
2023-04-17T10:45:56.287Z,8.67
2023-04-17T10:48:28.415Z,9.90
2023-04-17T10:50:58.068Z,7.13
2023-04-17T10:53:42.272Z,6.90
2023-04-17T10:56:11.968Z,13.20
2023-04-17T11:03:47.025Z,12.80
2023-04-17T11:06:14.641Z,9.17
2023-04-17T11:08:42.972Z,12.17
2023-04-17T11:11:11.346Z,9.20
2023-04-17T11:13:41.750Z,10.93
2023-04-17T11:16:09.548Z,7.37
2023-04-17T11:18:37.844Z,9.23
2023-04-17T11:23:51.652Z,6.60
2023-04-17T11:26:19.936Z,6.80
2023-04-17T11:28:47.726Z,5.93
2023-04-17T11:31:17.225Z,7.53
2023-04-17T11:33:48.553Z,8.20
2023-04-17T11:36:15.852Z,7.10
2023-04-17T11:38:47.415Z,8.30
2023-04-17T11:46:14.809Z,8.00
2023-04-17T11:48:42.332Z,7.47
2023-04-17T11:51:09.424Z,7.67
2023-04-17T11:53:37.292Z,8.60
2023-04-17T11:56:15.397Z,6.80
2023-04-17T11:58:49.826Z,9.70
2023-04-17T12:01:20.237Z,7.97
2023-04-17T12:08:55.328Z,9.03
2023-04-17T12:11:33.500Z,11.90
2023-04-17T12:14:03.265Z,8.30
2023-04-17T12:16:31.106Z,8.73
2023-04-17T12:18:58.636Z,7.07
2023-04-17T12:21:26.575Z,8.73
2023-04-17T12:23:58.632Z,11.10
2023-04-17T12:31:32.557Z,9.63
2023-04-17T12:33:59.639Z,8.80
2023-04-17T12:36:27.427Z,7.60
2023-04-17T12:38:54.444Z,8.33
2023-04-17T12:41:21.767Z,7.30
2023-04-17T12:43:49.377Z,9.17
2023-04-17T12:46:17.822Z,9.73
2023-04-17T12:53:52.616Z,7.03
2023-04-17T12:56:21.804Z,6.00
2023-04-17T12:58:49.320Z,5.77
2023-04-17T13:01:25.850Z,9.10
2023-04-17T13:03:53.320Z,7.30
2023-04-17T13:06:21.327Z,7.10
2023-04-17T13:11:27.441Z,7.40
2023-04-17T13:13:54.450Z,5.87
2023-04-17T13:16:22.998Z,6.27
2023-04-17T13:18:50.203Z,6.33
2023-04-17T13:21:17.424Z,12.87
2023-04-17T13:23:44.675Z,6.63
2023-04-17T13:26:14.182Z,6.77
2023-04-17T13:33:41.807Z,6.90
2023-04-17T13:36:09.005Z,5.87
2023-04-17T13:38:36.751Z,5.53
2023-04-17T13:41:03.934Z,8.60
2023-04-17T13:43:30.781Z,7.77
2023-04-17T13:45:58.183Z,6.67
2023-04-17T13:48:32.563Z,6.63
2023-04-17T13:56:07.833Z,4.17
2023-04-17T13:58:36.384Z,6.03
2023-04-17T14:01:04.932Z,5.53
2023-04-17T14:03:38.277Z,5.67
2023-04-17T14:06:07.854Z,4.43
2023-04-17T14:08:35.775Z,5.20
2023-04-17T14:11:03.244Z,4.07
2023-04-17T14:18:35.638Z,5.70
2023-04-17T14:21:02.928Z,12.67
2023-04-17T14:23:30.238Z,6.97
2023-04-17T14:25:58.520Z,5.07
2023-04-17T14:28:26.384Z,6.63
2023-04-17T14:30:53.607Z,4.97
2023-04-17T14:41:09.179Z,98.07
2023-04-17T14:43:36.384Z,5.13
2023-04-17T14:46:05.141Z,4.77
2023-04-17T14:48:36.245Z,5.87
2023-04-17T14:51:13.785Z,6.20
2023-04-17T14:53:41.329Z,11.50
2023-04-17T14:56:12.879Z,14.90
2023-04-17T15:01:42.612Z,6.47
2023-04-17T15:04:10.007Z,5.47
2023-04-17T15:06:40.578Z,14.57
2023-04-17T15:09:08.519Z,5.63
2023-04-17T15:11:36.232Z,5.70
2023-04-17T15:14:07.225Z,7.70
2023-04-17T15:16:34.555Z,8.27
2023-04-17T15:22:01.320Z,8.70
2023-04-17T15:24:28.778Z,9.67
2023-04-17T15:26:56.836Z,7.17
2023-04-17T15:29:24.643Z,6.63
2023-04-17T15:31:53.197Z,6.40
2023-04-17T15:34:21.147Z,7.40
2023-04-17T15:36:49.327Z,7.07
2023-04-17T15:44:22.317Z,6.83
2023-04-17T15:46:50.220Z,7.53
2023-04-17T15:49:17.672Z,7.80
2023-04-17T15:51:45.147Z,9.47
2023-04-17T15:54:12.770Z,6.20
2023-04-17T15:56:40.542Z,6.67
2023-04-17T15:59:08.132Z,5.60
2023-04-17T16:07:25.546Z,6.73
2023-04-17T16:09:53.431Z,8.83
2023-04-17T16:12:20.419Z,8.87
2023-04-17T16:14:48.730Z,8.73
2023-04-17T16:17:16.466Z,6.80
2023-04-17T16:19:43.631Z,6.00
2023-04-17T16:22:10.691Z,11.40
2023-04-17T16:29:45.942Z,7.87
2023-04-17T16:32:15.166Z,8.40
2023-04-17T16:34:42.532Z,10.17
2023-04-17T16:37:09.509Z,9.23
2023-04-17T16:39:36.817Z,5.47
2023-04-17T16:42:03.871Z,8.53
2023-04-17T16:44:30.728Z,8.57
2023-04-17T16:52:03.487Z,6.27
2023-04-17T16:54:34.167Z,8.33
2023-04-17T16:57:01.211Z,10.13
2023-04-17T16:59:28.456Z,7.87
2023-04-17T17:01:55.925Z,6.63
2023-04-17T17:04:23.295Z,9.67
2023-04-17T17:06:50.572Z,12.53
2023-04-17T17:14:18.508Z,10.50
2023-04-17T17:16:45.908Z,11.67
2023-04-17T17:19:15.543Z,10.90
2023-04-17T17:21:42.784Z,8.60
2023-04-17T17:24:09.738Z,9.17
2023-04-17T17:26:37.205Z,14.67
2023-04-17T17:29:16.970Z,8.27
2023-04-17T17:36:52.977Z,9.87
2023-04-17T17:39:21.115Z,11.20
2023-04-17T17:41:48.612Z,9.13
2023-04-17T17:44:15.942Z,9.63
2023-04-17T17:46:46.825Z,10.00
2023-04-17T17:49:14.350Z,9.60
2023-04-17T17:51:44.534Z,14.37
2023-04-17T17:57:06.342Z,11.67
2023-04-17T17:59:36.970Z,8.83
2023-04-17T18:02:08.289Z,12.70
2023-04-17T18:04:39.636Z,14.73
2023-04-17T18:07:07.563Z,12.80
2023-04-17T18:09:34.882Z,11.57
2023-04-17T18:12:03.276Z,11.30
2023-04-17T18:17:12.801Z,8.57
2023-04-17T18:19:41.444Z,10.80
2023-04-17T18:22:11.245Z,12.17
2023-04-17T18:24:38.581Z,11.23
2023-04-17T18:27:05.962Z,9.80
2023-04-17T18:29:34.388Z,12.10
2023-04-17T18:32:03.743Z,14.90
2023-04-17T18:39:39.199Z,10.50
2023-04-17T18:42:06.623Z,13.43
2023-04-17T18:44:34.020Z,13.10
2023-04-17T18:47:01.376Z,11.83
2023-04-17T18:49:28.684Z,14.93
2023-04-17T18:51:56.106Z,15.93
2023-04-17T18:54:24.275Z,13.40
2023-04-17T18:56:52.627Z,14.13
2023-04-17T19:04:26.791Z,12.13
2023-04-17T19:06:54.292Z,11.20
2023-04-17T19:09:22.014Z,12.27
2023-04-17T19:11:49.475Z,8.97
2023-04-17T19:14:16.522Z,14.03
2023-04-17T19:16:45.802Z,12.33
2023-04-17T19:19:15.429Z,12.13
2023-04-17T19:26:42.119Z,12.00
2023-04-17T19:29:10.219Z,11.00
2023-04-17T19:31:37.972Z,12.17
2023-04-17T19:34:06.406Z,14.50
2023-04-17T19:36:33.695Z,9.83
2023-04-17T19:39:04.107Z,21.73
2023-04-17T19:41:32.334Z,13.17
2023-04-17T19:48:53.440Z,9.90
2023-04-17T19:51:21.124Z,14.50
2023-04-17T19:53:48.703Z,10.47
2023-04-17T19:56:17.310Z,12.40
2023-04-17T19:58:45.123Z,14.53
2023-04-17T20:01:12.677Z,10.93
2023-04-17T20:03:41.586Z,11.50
2023-04-17T20:08:49.826Z,10.33
2023-04-17T20:11:17.163Z,12.27
2023-04-17T20:13:44.696Z,20.37
2023-04-17T20:16:12.175Z,10.10
2023-04-17T20:18:41.376Z,13.57
2023-04-17T20:21:12.198Z,10.63
2023-04-17T20:23:40.042Z,12.87
2023-04-17T20:31:12.816Z,16.93
2023-04-17T20:33:40.780Z,12.73
2023-04-17T20:36:08.242Z,10.07
2023-04-17T20:38:35.845Z,13.37
2023-04-17T20:41:03.064Z,13.17
2023-04-17T20:43:32.639Z,14.00
2023-04-17T20:46:00.337Z,12.07
2023-04-17T20:53:34.781Z,11.50
2023-04-17T20:56:02.164Z,14.33
2023-04-17T20:58:29.542Z,13.53
2023-04-17T21:01:01.060Z,10.23
2023-04-17T21:03:30.385Z,12.13
2023-04-17T21:06:03.017Z,11.33
2023-04-17T21:08:30.620Z,10.13
2023-04-17T21:16:02.539Z,11.37
2023-04-17T21:18:35.771Z,13.67
2023-04-17T21:21:06.050Z,12.90
2023-04-17T21:23:52.367Z,8.03
2023-04-17T21:26:37.253Z,10.33
2023-04-17T21:29:19.647Z,13.13
2023-04-17T21:31:48.642Z,10.67
2023-04-17T21:34:34.083Z,15.13
2023-04-17T21:37:24.398Z,10.53
2023-04-17T21:45:19.777Z,8.20
2023-04-17T21:47:56.674Z,8.07
2023-04-17T21:50:38.869Z,10.97
2023-04-17T21:53:27.530Z,9.83
2023-04-17T21:55:57.425Z,15.77
2023-04-17T21:58:24.869Z,7.63
2023-04-17T22:01:05.135Z,9.60
2023-04-17T22:03:34.283Z,11.27
2023-04-17T22:06:11.569Z,15.47
2023-04-17T22:13:47.741Z,11.30
2023-04-17T22:16:20.760Z,10.40
2023-04-17T22:18:58.792Z,11.37
2023-04-17T22:24:09.357Z,12.03
2023-04-17T22:26:56.988Z,13.27
2023-04-17T22:29:46.027Z,14.57
2023-04-17T22:32:25.751Z,8.80
2023-04-17T22:35:17.613Z,14.47
2023-04-17T22:38:21.414Z,12.77
2023-04-17T22:45:22.532Z,11.60
2023-04-17T22:47:54.898Z,12.93
2023-04-17T22:50:23.355Z,13.50
2023-04-17T22:52:52.918Z,10.37
2023-04-17T22:55:20.509Z,11.40
2023-04-17T22:57:47.796Z,11.67
2023-04-17T23:00:20.705Z,9.83
2023-04-17T23:07:55.062Z,11.90
2023-04-17T23:10:43.710Z,13.07
2023-04-17T23:13:13.652Z,13.90
2023-04-17T23:15:40.964Z,12.27
2023-04-17T23:18:49.894Z,12.90
2023-04-17T23:21:17.227Z,13.23
2023-04-17T23:23:52.987Z,13.37
2023-04-17T23:26:21.702Z,16.63
2023-04-17T23:28:51.321Z,12.27
2023-04-17T23:36:40.854Z,17.27
2023-04-17T23:39:11.120Z,17.93
2023-04-17T23:41:41.747Z,16.13
2023-04-17T23:44:09.328Z,13.27
2023-04-17T23:46:54.608Z,14.37
2023-04-17T23:49:53.272Z,11.40
2023-04-17T23:52:46.414Z,12.80
2023-04-17T23:55:19.142Z,14.63
2023-04-17T23:58:02.226Z,19.40
